Aegean Orion — SVA2487 — position and weather

sailwx.info

Track history (hours):
 
Tides and Currents Weather Stations Pressure Air Temp Water Temp Dewpoint Dewpoint Depression Visibility Wind Speed Wind Dir Waves Ship Positions

Aegean Orion

Last reported at 2014-Sep-15 16:03 UTC. Time now 2014-Sep-16 17:29 UTC.
Position N 38°02' E 023°32'.

; draft 2.4 m.

Type: Ship. MMSI: 239550200.

Date/timePositionNaut miles runAvg speedWind from/ knotsBaromVisibWave heightAir tempDewpointWater temp
2014-Sep-15 16:03N 38°02' E 023°32'0 0.0
2014-Sep-15 15:33N 38°02' E 023°32'6 5.8
2014-Sep-15 14:33N 37°57' E 023°35'3 2.6
2014-Sep-15 13:33N 37°57' E 023°38'0 0.0
2014-Sep-15 12:33N 37°57' E 023°38'1 1.4
2014-Sep-15 11:33N 37°57' E 023°37'2 2.1
2014-Sep-15 10:33N 37°57' E 023°34'0 0.0
2014-Sep-15 09:33N 37°57' E 023°34'2 1.6
2014-Sep-15 08:33N 37°58' E 023°33'4 1.4
2014-Sep-15 05:33N 38°02' E 023°35'5 4.6
2014-Sep-15 04:34N 37°58' E 023°33'1 1.2
2014-Sep-15 03:33N 37°57' E 023°34'0 0.0
2014-Sep-15 02:33N 37°57' E 023°34'0 0.0
2014-Sep-15 01:33N 37°57' E 023°34'0 0.0
2014-Sep-15 00:33N 37°57' E 023°34'0 0.0
2014-Sep-14 23:33N 37°57' E 023°34'3 3.4
2014-Sep-14 22:33N 37°57' E 023°38'0 0.0
2014-Sep-14 21:33N 37°57' E 023°38'0 0.1
2014-Sep-14 20:33N 37°57' E 023°38'3 3.3
2014-Sep-14 19:33N 37°57' E 023°34'0 0.0
2014-Sep-14 18:34N 37°57' E 023°34'0 0.0
2014-Sep-14 17:33N 37°57' E 023°34'1 0.0
2014-Sep-13 08:19N 37°58' E 023°33'4 3.6
2014-Sep-13 07:09N 37°57' E 023°38'0 0.0
2014-Sep-13 06:33N 37°57' E 023°38'1 0.9
2014-Sep-13 05:33N 37°56' E 023°37'5 5.4
2014-Sep-13 04:33N 38°00' E 023°32'2 0.1
2014-Sep-12 09:30N 38°02' E 023°32'1 1.0
2014-Sep-12 08:33N 38°02' E 023°33'2 0.6
2014-Sep-12 05:27N 38°02' E 023°35'3 2.9
2014-Sep-12 04:32N 38°02' E 023°32'0 0.0
2014-Sep-11 13:15N 38°02' E 023°32'1 1.2
2014-Sep-11 12:33N 38°01' E 023°32'0 0.0
2014-Sep-11 11:29N 38°01' E 023°32'5 5.7
2014-Sep-11 10:33N 37°57' E 023°35'2 1.6
2014-Sep-11 09:33N 37°56' E 023°37'0 0.0
2014-Sep-11 08:33N 37°56' E 023°37'1 0.7
2014-Sep-11 07:33N 37°57' E 023°38'0 0.0
2014-Sep-11 06:33N 37°57' E 023°38'0 0.0
2014-Sep-11 05:33N 37°57' E 023°38'8 0.4
2014-Sep-10 08:26N 38°02' E 023°31'0 0.0
2014-Sep-10 07:28N 38°02' E 023°31'0 0.0
2014-Sep-10 06:33N 38°02' E 023°31'0 0.0
2014-Sep-10 05:30N 38°02' E 023°31'0 0.1
2014-Sep-10 04:31N 38°02' E 023°31'1 0.1
2014-Sep-09 09:06N 38°02' E 023°32'4 6.8
2014-Sep-09 08:33N 37°59' E 023°33'2 2.2
2014-Sep-09 07:33N 37°57' E 023°35'3 2.7
2014-Sep-09 06:34N 37°57' E 023°38'0 0.0
2014-Sep-09 05:33N 37°57' E 023°38'3 2.7
2014-Sep-09 04:34N 37°57' E 023°35'0 0.1
2014-Sep-09 03:33N 37°57' E 023°35'0 0.0
2014-Sep-09 02:33N 37°57' E 023°35'0 0.0
2014-Sep-09 01:34N 37°57' E 023°35'0 0.0
2014-Sep-09 00:33N 37°57' E 023°35'0 0.0
2014-Sep-08 23:33N 37°57' E 023°35'0 0.0
2014-Sep-08 22:33N 37°57' E 023°35'0 0.0
2014-Sep-08 21:33N 37°57' E 023°35'0 0.0
2014-Sep-08 20:33N 37°57' E 023°35'0 0.0
2014-Sep-08 19:33N 37°57' E 023°35'3 3.0
2014-Sep-08 18:33N 37°57' E 023°38'0 0.0
2014-Sep-08 17:33N 37°57' E 023°38'2 1.7
2014-Sep-08 16:33N 37°56' E 023°36'2 2.0
2014-Sep-08 15:33N 37°57' E 023°34'0 0.0
2014-Sep-08 14:33N 37°57' E 023°34'0 0.0
2014-Sep-08 13:33N 37°57' E 023°34'0 0.0
2014-Sep-08 12:33N 37°57' E 023°34'0 0.0
2014-Sep-08 11:33N 37°57' E 023°34'0 0.0
2014-Sep-08 10:33N 37°57' E 023°34'0 0.1
2014-Sep-08 09:33N 37°57' E 023°34'  
Track history (hours):
 
Tides and Currents Weather Stations Pressure Air Temp Water Temp Dewpoint Dewpoint Depression Visibility Wind Speed Wind Dir Waves Ship Positions

Aegean Orion

Last reported at 2014-Sep-15 16:03 UTC. Time now 2014-Sep-16 17:29 UTC.
Position N 38°02' E 023°32'.

; draft 2.4 m.

Type: Ship. MMSI: 239550200.

Date/timePositionNaut miles runAvg speedWind from/ knotsBaromVisibWave heightAir tempDewpointWater temp
2014-Sep-15 16:03N 38°02' E 023°32'0 0.0
2014-Sep-15 15:33N 38°02' E 023°32'6 5.8
2014-Sep-15 14:33N 37°57' E 023°35'3 2.6
2014-Sep-15 13:33N 37°57' E 023°38'0 0.0
2014-Sep-15 12:33N 37°57' E 023°38'1 1.4
2014-Sep-15 11:33N 37°57' E 023°37'2 2.1
2014-Sep-15 10:33N 37°57' E 023°34'0 0.0
2014-Sep-15 09:33N 37°57' E 023°34'2 1.6
2014-Sep-15 08:33N 37°58' E 023°33'4 1.4
2014-Sep-15 05:33N 38°02' E 023°35'5 4.6
2014-Sep-15 04:34N 37°58' E 023°33'1 1.2
2014-Sep-15 03:33N 37°57' E 023°34'0 0.0
2014-Sep-15 02:33N 37°57' E 023°34'0 0.0
2014-Sep-15 01:33N 37°57' E 023°34'0 0.0
2014-Sep-15 00:33N 37°57' E 023°34'0 0.0
2014-Sep-14 23:33N 37°57' E 023°34'3 3.4
2014-Sep-14 22:33N 37°57' E 023°38'0 0.0
2014-Sep-14 21:33N 37°57' E 023°38'0 0.1
2014-Sep-14 20:33N 37°57' E 023°38'3 3.3
2014-Sep-14 19:33N 37°57' E 023°34'0 0.0
2014-Sep-14 18:34N 37°57' E 023°34'0 0.0
2014-Sep-14 17:33N 37°57' E 023°34'1 0.0
2014-Sep-13 08:19N 37°58' E 023°33'4 3.6
2014-Sep-13 07:09N 37°57' E 023°38'0 0.0
2014-Sep-13 06:33N 37°57' E 023°38'1 0.9
2014-Sep-13 05:33N 37°56' E 023°37'5 5.4
2014-Sep-13 04:33N 38°00' E 023°32'2 0.1
2014-Sep-12 09:30N 38°02' E 023°32'1 1.0
2014-Sep-12 08:33N 38°02' E 023°33'2 0.6
2014-Sep-12 05:27N 38°02' E 023°35'3 2.9
2014-Sep-12 04:32N 38°02' E 023°32'0 0.0
2014-Sep-11 13:15N 38°02' E 023°32'1 1.2
2014-Sep-11 12:33N 38°01' E 023°32'0 0.0
2014-Sep-11 11:29N 38°01' E 023°32'5 5.7
2014-Sep-11 10:33N 37°57' E 023°35'2 1.6
2014-Sep-11 09:33N 37°56' E 023°37'0 0.0
2014-Sep-11 08:33N 37°56' E 023°37'1 0.7
2014-Sep-11 07:33N 37°57' E 023°38'0 0.0
2014-Sep-11 06:33N 37°57' E 023°38'0 0.0
2014-Sep-11 05:33N 37°57' E 023°38'8 0.4
2014-Sep-10 08:26N 38°02' E 023°31'0 0.0
2014-Sep-10 07:28N 38°02' E 023°31'0 0.0
2014-Sep-10 06:33N 38°02' E 023°31'0 0.0
2014-Sep-10 05:30N 38°02' E 023°31'0 0.1
2014-Sep-10 04:31N 38°02' E 023°31'1 0.1
2014-Sep-09 09:06N 38°02' E 023°32'4 6.8
2014-Sep-09 08:33N 37°59' E 023°33'2 2.2
2014-Sep-09 07:33N 37°57' E 023°35'3 2.7
2014-Sep-09 06:34N 37°57' E 023°38'0 0.0
2014-Sep-09 05:33N 37°57' E 023°38'3 2.7
2014-Sep-09 04:34N 37°57' E 023°35'0 0.1
2014-Sep-09 03:33N 37°57' E 023°35'0 0.0
2014-Sep-09 02:33N 37°57' E 023°35'0 0.0
2014-Sep-09 01:34N 37°57' E 023°35'0 0.0
2014-Sep-09 00:33N 37°57' E 023°35'0 0.0
2014-Sep-08 23:33N 37°57' E 023°35'0 0.0
2014-Sep-08 22:33N 37°57' E 023°35'0 0.0
2014-Sep-08 21:33N 37°57' E 023°35'0 0.0
2014-Sep-08 20:33N 37°57' E 023°35'0 0.0
2014-Sep-08 19:33N 37°57' E 023°35'3 3.0
2014-Sep-08 18:33N 37°57' E 023°38'0 0.0
2014-Sep-08 17:33N 37°57' E 023°38'2 1.7
2014-Sep-08 16:33N 37°56' E 023°36'2 2.0
2014-Sep-08 15:33N 37°57' E 023°34'0 0.0
2014-Sep-08 14:33N 37°57' E 023°34'0 0.0
2014-Sep-08 13:33N 37°57' E 023°34'0 0.0
2014-Sep-08 12:33N 37°57' E 023°34'0 0.0
2014-Sep-08 11:33N 37°57' E 023°34'0 0.0
2014-Sep-08 10:33N 37°57' E 023°34'0 0.1
2014-Sep-08 09:33N 37°57' E 023°34'  

Dump ship's entire track history